Aeroporto :
LOGIN :

Iscrizione | Disclaimer

   EN    FR    IT 

 










Sommario :    VFR   VFR Marginale   IFR   IFR Intensivo   IFR Molto Intensivo
Visibilità : 
Base nubi : 
>= 8 km
>= 3000ft
5 / 8 km
1000 / 3000 ft
1500m / 5 km
500 / 1000 ft
800 / 1500m
200 / 500 ft
< 800m
< 200 ft
Simboli :   Temporali  Nebbia  Neve Forte  Precipitazioni Forti  Vento > 20 kt
SIGMETs :   Varie  Temporali  Ghiacco  Turbolenza  Onda orograficha  Ceneri Vulcaniche






- Altitudine del aeroporto : 33 ft
- Codice IATA : MHZ


EGUN - RAF Mildenhall

ULTIMO METAR :
  • 090355Z 00000KT 9999 SCT090 07/04 A3024 RMK AO2A SLP241 WND DATA ESMTD ALSTG/SLP ESTMD RVRNO

METARs OBSOLETI :
  • 090255Z 00000KT 9999 CLR 08/04 A3024 RMK AO2A SLP239 WND DATA ESTMD ALSTG/SLP ESTMD RVRNO
  • 090155Z 35001KT 9999 FEW095 09/05 A3024 RMK AO2A SLP239 WND DATA ESTMD ALSTG/SLP ESTMD RVRNO

TAF TAF EGUN
Valido dal 09 a 04 ore il 10 a 10 ore UTC


090400Z 0904/1010 VRB06KT 8000 BR SKC QNH3023INS
BECMG 0907/0908 09012KT 9999 NSW SCT080 QNH3025INS
TEMPO 0914/0917 09012G20KT
BECMG 1007/1008 14012G20KT 9999 SKC QNH3029INS TX21/0914Z TN05/0905Z



MetMap, La meteo Aeronautica in un colpo d'occhio ! - Copyright ORBIFLY Dicembre 2007 - Disclaimer

ORBIFLY MET'MAP TEAM :

Programmazione e sviluppo : Alexandra Zaïnal
Concezione : Baudouin d'Aumeries
Aiuto per la programmazione : Marc-Olivier Méhu
Supporto tecnico e logistico : Manuel Goepfert
Aiuto per la traduzione : Arnaldo La Scala

Contatto : metmap@orbifly.com




FONTI E CREDITI :

   NOAA